createdAt,value
2019-03-03T00:00:19.567Z,20.40
2019-03-03T00:02:48.237Z,20.50
2019-03-03T00:05:16.875Z,19.70
2019-03-03T00:07:45.501Z,20.90
2019-03-03T00:10:14.272Z,19.97
2019-03-03T00:12:42.900Z,20.90
2019-03-03T00:15:12.511Z,21.57
2019-03-03T00:17:41.136Z,21.00
2019-03-03T00:20:14.717Z,20.80
2019-03-03T00:22:43.356Z,20.27
2019-03-03T00:25:16.565Z,20.47
2019-03-03T00:27:45.212Z,19.03
2019-03-03T00:30:21.437Z,19.83
2019-03-03T00:32:50.112Z,20.23
2019-03-03T00:35:18.895Z,20.83
2019-03-03T00:38:00.958Z,21.13
2019-03-03T00:40:34.135Z,20.87
2019-03-03T00:43:22.234Z,21.87
2019-03-03T00:46:09.036Z,20.00
2019-03-03T00:48:39.324Z,20.50
2019-03-03T00:51:12.608Z,21.30
2019-03-03T00:53:42.948Z,20.50
2019-03-03T00:56:19.104Z,21.87
2019-03-03T00:59:06.212Z,21.17
2019-03-03T01:01:36.481Z,21.10
2019-03-03T01:04:11.215Z,21.63
2019-03-03T01:06:59.747Z,21.10
2019-03-03T01:09:41.769Z,19.87
2019-03-03T01:12:30.459Z,20.73
2019-03-03T01:15:04.692Z,20.80
2019-03-03T01:17:35.811Z,21.30
2019-03-03T01:20:11.547Z,20.70
2019-03-03T01:22:58.310Z,20.80
2019-03-03T01:25:26.987Z,20.30
2019-03-03T01:27:55.551Z,21.30
2019-03-03T01:30:24.216Z,21.73
2019-03-03T01:32:52.846Z,20.73
2019-03-03T01:35:21.460Z,21.20
2019-03-03T01:37:50.085Z,22.07
2019-03-03T01:40:18.712Z,20.57
2019-03-03T01:42:47.195Z,22.17
2019-03-03T01:45:16.369Z,20.83
2019-03-03T01:47:45.040Z,22.93
2019-03-03T01:50:14.271Z,21.43
2019-03-03T01:52:43.003Z,21.73
2019-03-03T01:55:12.728Z,20.90
2019-03-03T01:57:41.350Z,23.10
2019-03-03T02:00:24.695Z,25.10
2019-03-03T02:02:53.730Z,24.03
2019-03-03T02:05:22.399Z,23.80
2019-03-03T02:07:51.076Z,22.40
2019-03-03T02:10:21.972Z,22.30
2019-03-03T02:12:50.642Z,24.70
2019-03-03T02:15:19.439Z,23.53
2019-03-03T02:17:48.154Z,23.63
2019-03-03T02:20:16.838Z,22.20
2019-03-03T02:22:45.475Z,21.73
2019-03-03T02:25:14.957Z,22.27
2019-03-03T02:27:43.592Z,21.57
2019-03-03T02:30:20.394Z,21.50
2019-03-03T02:32:49.145Z,21.47
2019-03-03T02:35:17.884Z,22.90
2019-03-03T02:37:46.925Z,22.70
2019-03-03T02:40:20.666Z,24.10
2019-03-03T02:42:49.297Z,21.87
2019-03-03T02:45:18.443Z,24.83
2019-03-03T02:47:47.020Z,23.47
2019-03-03T02:50:16.566Z,23.30
2019-03-03T02:52:45.240Z,24.47
2019-03-03T02:55:17.371Z,24.33
2019-03-03T02:57:46.142Z,23.63
2019-03-03T03:00:24.468Z,22.57
2019-03-03T03:02:54.746Z,24.43
2019-03-03T03:05:47.227Z,26.87
2019-03-03T03:08:17.546Z,24.80
2019-03-03T03:10:47.843Z,24.93
2019-03-03T03:13:24.125Z,25.37
2019-03-03T03:15:54.330Z,24.57
2019-03-03T03:18:40.811Z,23.90
2019-03-03T03:21:11.005Z,25.97
2019-03-03T03:23:41.338Z,25.77
2019-03-03T03:26:14.610Z,25.53
2019-03-03T03:28:44.861Z,28.20
2019-03-03T03:31:20.871Z,30.83
2019-03-03T03:33:53.779Z,32.23
2019-03-03T03:36:23.978Z,33.17
2019-03-03T03:39:04.714Z,32.77
2019-03-03T03:41:34.969Z,36.23
2019-03-03T03:44:21.694Z,35.20
2019-03-03T03:47:06.832Z,37.90
2019-03-03T03:49:39.925Z,38.17
2019-03-03T03:52:10.141Z,38.37
2019-03-03T03:54:57.483Z,40.73
2019-03-03T03:57:27.750Z,40.03
2019-03-03T03:59:58.084Z,39.67
2019-03-03T04:02:28.413Z,38.00
2019-03-03T04:05:07.687Z,37.83
2019-03-03T04:07:43.999Z,34.70
2019-03-03T04:10:31.558Z,38.43
2019-03-03T04:13:01.858Z,37.43
2019-03-03T04:15:41.104Z,36.00
2019-03-03T04:18:25.031Z,32.40
2019-03-03T04:21:07.180Z,33.13
2019-03-03T04:23:50.606Z,27.57
2019-03-03T04:26:23.877Z,28.50
2019-03-03T04:28:57.008Z,27.83
2019-03-03T04:31:27.230Z,27.83
2019-03-03T04:34:13.712Z,28.17
2019-03-03T04:36:43.988Z,28.73
2019-03-03T04:39:16.949Z,28.73
2019-03-03T04:41:52.938Z,28.97
2019-03-03T04:44:23.083Z,31.93
2019-03-03T04:46:53.299Z,32.93
2019-03-03T04:49:26.470Z,34.93
2019-03-03T04:51:56.730Z,36.73
2019-03-03T04:54:30.115Z,37.80
2019-03-03T04:57:08.988Z,35.97
2019-03-03T04:59:56.284Z,36.47
2019-03-03T05:02:26.411Z,37.20
2019-03-03T05:05:09.166Z,40.03
2019-03-03T05:07:52.747Z,40.23
2019-03-03T05:10:32.303Z,41.40
2019-03-03T05:13:02.397Z,45.63
2019-03-03T05:15:46.550Z,48.87
2019-03-03T05:18:23.779Z,45.80
2019-03-03T05:20:52.461Z,46.77
2019-03-03T05:23:21.097Z,48.33
2019-03-03T05:25:49.737Z,48.00
2019-03-03T05:28:18.343Z,47.30
2019-03-03T05:30:46.950Z,48.47
2019-03-03T05:33:15.561Z,50.27
2019-03-03T05:35:44.121Z,48.50
2019-03-03T05:38:12.705Z,51.00
2019-03-03T05:40:41.229Z,55.30
2019-03-03T05:43:09.798Z,51.60
2019-03-03T05:45:38.403Z,51.83
2019-03-03T05:48:07.013Z,50.63
2019-03-03T05:50:35.572Z,49.30
2019-03-03T05:53:04.211Z,46.87
2019-03-03T05:55:32.840Z,48.27
2019-03-03T05:58:01.411Z,48.30
2019-03-03T06:00:29.971Z,44.43
2019-03-03T06:02:58.646Z,43.90
2019-03-03T06:05:27.279Z,42.83
2019-03-03T06:07:55.820Z,49.37
2019-03-03T06:10:24.436Z,40.23
2019-03-03T06:12:53.111Z,42.90
2019-03-03T06:15:21.709Z,38.67
2019-03-03T06:17:50.344Z,35.90
2019-03-03T06:20:19.025Z,33.30
2019-03-03T06:22:47.583Z,35.70
2019-03-03T06:25:19.238Z,35.80
2019-03-03T06:27:47.774Z,38.57
2019-03-03T06:30:16.499Z,37.60
2019-03-03T06:32:45.101Z,38.77
2019-03-03T06:35:14.037Z,32.87
2019-03-03T06:37:42.668Z,39.57
2019-03-03T06:40:11.808Z,43.83
2019-03-03T06:42:40.441Z,37.17
2019-03-03T06:45:13.684Z,34.13
2019-03-03T06:47:42.360Z,30.17
2019-03-03T06:50:12.387Z,29.67
2019-03-03T06:52:41.057Z,27.97
2019-03-03T06:55:11.483Z,30.57
2019-03-03T06:57:40.060Z,30.00
2019-03-03T07:00:14.372Z,28.83
2019-03-03T07:02:43.005Z,29.97
2019-03-03T07:05:11.744Z,32.07
2019-03-03T07:07:40.485Z,29.67
2019-03-03T07:10:11.528Z,33.10
2019-03-03T07:12:40.134Z,32.33
2019-03-03T07:15:13.879Z,32.47
2019-03-03T07:17:42.508Z,32.67
2019-03-03T07:20:12.845Z,32.20
2019-03-03T07:22:41.519Z,31.87
2019-03-03T07:25:14.647Z,31.93
2019-03-03T07:27:43.254Z,31.40
2019-03-03T07:30:17.734Z,33.80
2019-03-03T07:32:50.372Z,29.97
2019-03-03T07:35:19.010Z,29.87
2019-03-03T07:37:47.619Z,32.20
2019-03-03T07:40:16.242Z,31.93
2019-03-03T07:42:44.856Z,32.47
2019-03-03T07:45:15.135Z,32.63
2019-03-03T07:47:43.711Z,35.83
2019-03-03T07:50:12.376Z,35.43
2019-03-03T07:52:40.853Z,35.37
2019-03-03T07:55:10.522Z,34.27
2019-03-03T07:57:39.084Z,32.27
2019-03-03T08:00:10.797Z,31.43
2019-03-03T08:02:39.423Z,31.87
2019-03-03T08:05:09.504Z,32.93
2019-03-03T08:07:38.133Z,34.33
2019-03-03T08:10:09.672Z,33.20
2019-03-03T08:12:38.344Z,33.50
2019-03-03T08:15:09.383Z,30.37
2019-03-03T08:17:38.018Z,35.13
2019-03-03T08:20:09.707Z,34.40
2019-03-03T08:22:38.351Z,35.43
2019-03-03T08:25:08.946Z,34.50
2019-03-03T08:27:37.590Z,36.73
2019-03-03T08:30:16.433Z,35.73
2019-03-03T08:32:45.035Z,33.87
2019-03-03T08:35:24.717Z,36.10
2019-03-03T08:37:56.160Z,36.30
2019-03-03T08:40:24.801Z,35.43
2019-03-03T08:43:06.936Z,35.40
2019-03-03T08:45:37.245Z,34.30
2019-03-03T08:48:10.539Z,39.27
2019-03-03T08:50:52.783Z,36.83
2019-03-03T08:53:28.972Z,37.83
2019-03-03T08:56:01.855Z,36.30
2019-03-03T08:58:40.986Z,36.63
2019-03-03T09:01:20.306Z,39.00
2019-03-03T09:04:05.505Z,37.27
2019-03-03T09:06:38.371Z,38.27
2019-03-03T09:09:12.044Z,38.30
2019-03-03T09:11:44.070Z,39.10
2019-03-03T09:14:17.054Z,40.10
2019-03-03T09:16:48.386Z,37.90
2019-03-03T09:19:24.834Z,37.27
2019-03-03T09:22:11.445Z,39.57
2019-03-03T09:24:41.780Z,39.67
2019-03-03T09:27:18.012Z,39.27
2019-03-03T09:29:48.258Z,39.93
2019-03-03T09:32:18.394Z,41.00
2019-03-03T09:34:57.960Z,39.77
2019-03-03T09:37:43.179Z,41.73
2019-03-03T09:40:13.493Z,39.50
2019-03-03T09:42:46.549Z,40.10
2019-03-03T09:45:16.863Z,42.33
2019-03-03T09:47:47.129Z,43.40
2019-03-03T09:50:23.103Z,48.53
2019-03-03T09:52:56.381Z,44.30
2019-03-03T09:55:38.965Z,45.67
2019-03-03T09:58:18.021Z,45.33
2019-03-03T10:01:00.403Z,47.10
2019-03-03T10:03:36.126Z,48.13
2019-03-03T10:06:09.273Z,45.57
2019-03-03T10:08:39.521Z,43.97
2019-03-03T10:11:22.073Z,45.50
2019-03-03T10:13:55.068Z,45.87
2019-03-03T10:16:28.303Z,44.83
2019-03-03T10:19:10.718Z,42.93
2019-03-03T10:21:43.840Z,44.03
2019-03-03T10:24:14.109Z,42.27
2019-03-03T10:27:02.634Z,44.63
2019-03-03T10:29:38.629Z,44.97
2019-03-03T10:32:18.041Z,43.17
2019-03-03T10:34:48.335Z,42.30
2019-03-03T10:37:21.270Z,40.43
2019-03-03T10:40:03.127Z,38.43
2019-03-03T10:42:35.952Z,37.73
2019-03-03T10:45:10.297Z,38.07
2019-03-03T10:47:49.726Z,37.57
2019-03-03T10:50:36.300Z,37.83
2019-03-03T10:53:06.782Z,35.77
2019-03-03T10:55:37.098Z,37.97
2019-03-03T10:58:10.141Z,37.83
2019-03-03T11:00:49.155Z,38.17
2019-03-03T11:03:25.173Z,38.93
2019-03-03T11:05:55.440Z,32.37
2019-03-03T11:08:42.140Z,31.10
2019-03-03T11:11:21.368Z,29.97
2019-03-03T11:13:56.627Z,32.17
2019-03-03T11:16:39.177Z,29.57
2019-03-03T11:19:20.049Z,29.77
2019-03-03T11:22:06.416Z,27.13
2019-03-03T11:24:39.375Z,27.90
2019-03-03T11:27:26.177Z,29.97
2019-03-03T11:30:05.424Z,30.37
2019-03-03T11:32:41.830Z,30.90
2019-03-03T11:35:20.958Z,29.17
2019-03-03T11:37:57.120Z,28.60
2019-03-03T11:40:27.933Z,29.33
2019-03-03T11:43:14.435Z,28.10
2019-03-03T11:45:47.691Z,28.67
2019-03-03T11:48:34.349Z,26.53
2019-03-03T11:51:10.694Z,27.83
2019-03-03T11:53:56.031Z,28.10
2019-03-03T11:56:26.232Z,27.40
2019-03-03T11:58:59.168Z,27.37
2019-03-03T12:01:35.406Z,26.30
2019-03-03T12:04:11.713Z,27.10
2019-03-03T12:06:46.756Z,26.40
2019-03-03T12:09:29.521Z,25.17
2019-03-03T12:12:05.766Z,24.20
2019-03-03T12:14:52.593Z,25.80
2019-03-03T12:17:25.841Z,26.63
2019-03-03T12:20:08.395Z,27.33
2019-03-03T12:22:47.484Z,25.03
2019-03-03T12:25:32.860Z,23.63
2019-03-03T12:28:09.405Z,25.77
2019-03-03T12:30:54.840Z,26.53
2019-03-03T12:33:25.136Z,25.13
2019-03-03T12:35:58.393Z,24.97
2019-03-03T12:38:34.499Z,27.83
2019-03-03T12:41:10.958Z,29.90
2019-03-03T12:43:56.418Z,27.20
2019-03-03T12:46:32.229Z,27.53
2019-03-03T12:49:05.400Z,22.43
2019-03-03T12:52:01.262Z,23.60
2019-03-03T12:54:34.459Z,22.60
2019-03-03T12:57:10.394Z,23.20
2019-03-03T12:59:46.520Z,23.17
2019-03-03T13:02:33.185Z,21.23
2019-03-03T13:05:12.148Z,21.60
2019-03-03T13:07:50.784Z,21.93
2019-03-03T13:10:23.776Z,20.57
2019-03-03T13:12:59.673Z,21.73
2019-03-03T13:15:33.932Z,22.07
2019-03-03T13:18:20.301Z,21.07
2019-03-03T13:21:06.401Z,20.80
2019-03-03T13:23:48.844Z,20.60
2019-03-03T13:26:35.593Z,20.37
2019-03-03T13:29:11.975Z,21.27
2019-03-03T13:31:58.680Z,21.90
2019-03-03T13:34:37.958Z,20.83
2019-03-03T13:37:13.835Z,21.87
2019-03-03T13:39:46.490Z,23.37
2019-03-03T13:42:32.122Z,20.97
2019-03-03T13:45:00.766Z,20.63
2019-03-03T13:47:29.309Z,21.73
2019-03-03T13:49:57.979Z,21.77
2019-03-03T13:52:26.656Z,23.10
2019-03-03T13:54:55.212Z,21.07
2019-03-03T13:57:23.881Z,21.73
2019-03-03T13:59:52.526Z,21.33
2019-03-03T14:02:21.155Z,21.07
2019-03-03T14:04:49.838Z,21.77
2019-03-03T14:07:18.471Z,21.80
2019-03-03T14:09:47.047Z,20.63
2019-03-03T14:12:15.603Z,20.80
2019-03-03T14:14:44.278Z,21.20
2019-03-03T14:17:12.832Z,19.07
2019-03-03T14:19:41.514Z,19.00
2019-03-03T14:22:10.141Z,20.87
2019-03-03T14:24:38.819Z,21.70
2019-03-03T14:27:10.610Z,21.70
2019-03-03T14:29:37.779Z,22.57
2019-03-03T14:32:06.411Z,21.73
2019-03-03T14:34:35.103Z,23.03
2019-03-03T14:37:03.783Z,21.93
2019-03-03T14:39:32.423Z,21.87
2019-03-03T14:42:01.061Z,22.57
2019-03-03T14:44:29.729Z,23.60
2019-03-03T14:46:58.292Z,24.33
2019-03-03T14:49:26.940Z,23.23
2019-03-03T14:51:55.621Z,20.50
2019-03-03T14:54:24.093Z,20.93
2019-03-03T14:56:52.765Z,20.13
2019-03-03T14:59:21.330Z,19.27
2019-03-03T15:01:50.005Z,18.03
2019-03-03T15:04:18.641Z,18.13
2019-03-03T15:06:47.248Z,18.17
2019-03-03T15:09:17.520Z,15.60
2019-03-03T15:11:46.141Z,14.37
2019-03-03T15:14:14.768Z,14.03
2019-03-03T15:16:43.402Z,12.47
2019-03-03T15:19:12.005Z,11.67
2019-03-03T15:21:40.642Z,12.93
2019-03-03T15:24:09.416Z,11.53
2019-03-03T15:26:38.046Z,13.67
2019-03-03T15:29:06.833Z,12.50
2019-03-03T15:31:37.949Z,12.63
2019-03-03T15:34:06.545Z,14.17
2019-03-03T15:36:35.221Z,13.27
2019-03-03T15:39:05.292Z,13.10
2019-03-03T15:41:33.959Z,12.63
2019-03-03T15:44:02.797Z,13.57
2019-03-03T15:46:31.422Z,13.07
2019-03-03T15:49:00.101Z,13.97
2019-03-03T15:51:28.671Z,13.67
2019-03-03T15:54:00.039Z,13.90
2019-03-03T15:56:28.599Z,14.37
2019-03-03T15:59:00.239Z,14.17
2019-03-03T16:01:28.945Z,15.00
2019-03-03T16:03:57.544Z,14.60
2019-03-03T16:06:26.218Z,15.00
2019-03-03T16:08:54.710Z,15.67
2019-03-03T16:11:23.391Z,14.37
2019-03-03T16:13:51.947Z,14.90
2019-03-03T16:16:20.510Z,14.90
2019-03-03T16:18:49.183Z,14.70
2019-03-03T16:21:17.810Z,14.80
2019-03-03T16:23:46.424Z,14.27
2019-03-03T16:26:15.049Z,15.07
2019-03-03T16:28:43.531Z,15.00
2019-03-03T16:31:12.207Z,16.00
2019-03-03T16:33:40.760Z,21.13
2019-03-03T16:36:12.125Z,25.40
2019-03-03T16:38:40.734Z,42.73
2019-03-03T16:41:09.341Z,46.70
2019-03-03T16:43:40.984Z,40.47
2019-03-03T16:46:09.650Z,37.00
2019-03-03T16:48:38.251Z,30.83
2019-03-03T16:51:06.924Z,27.90
2019-03-03T16:53:35.477Z,30.90
2019-03-03T16:56:04.149Z,31.00
2019-03-03T16:58:32.832Z,30.77
2019-03-03T17:01:01.448Z,28.67
2019-03-03T17:03:30.119Z,25.63
2019-03-03T17:06:01.334Z,23.33
2019-03-03T17:08:29.910Z,22.07
2019-03-03T17:10:58.475Z,22.10
2019-03-03T17:13:29.918Z,21.33
2019-03-03T17:15:58.843Z,20.80
2019-03-03T17:18:27.765Z,23.67
2019-03-03T17:20:56.379Z,21.60
2019-03-03T17:23:25.045Z,20.87
2019-03-03T17:25:53.677Z,21.47
2019-03-03T17:28:22.301Z,22.83
2019-03-03T17:30:50.987Z,23.47
2019-03-03T17:33:22.309Z,22.53
2019-03-03T17:35:50.874Z,24.40
2019-03-03T17:38:19.477Z,22.77
2019-03-03T17:40:48.104Z,24.00
2019-03-03T17:43:16.814Z,28.10
2019-03-03T17:45:45.441Z,31.03
2019-03-03T17:48:14.086Z,30.60
2019-03-03T17:50:42.648Z,44.27
2019-03-03T17:53:11.323Z,43.57
2019-03-03T17:55:39.884Z,48.07
2019-03-03T17:58:10.631Z,46.60
2019-03-03T18:00:40.573Z,51.77
2019-03-03T18:03:09.302Z,46.13
2019-03-03T18:05:37.860Z,45.90
2019-03-03T18:08:06.508Z,46.23
2019-03-03T18:10:35.118Z,43.80
2019-03-03T18:13:03.788Z,38.13
2019-03-03T18:15:32.485Z,40.67
2019-03-03T18:18:01.198Z,37.37
2019-03-03T18:20:29.813Z,40.27
2019-03-03T18:22:58.479Z,37.53
2019-03-03T18:25:27.159Z,36.47
2019-03-03T18:27:55.649Z,36.77
2019-03-03T18:30:25.981Z,36.47
2019-03-03T18:32:54.659Z,36.10
2019-03-03T18:35:23.276Z,41.40
2019-03-03T18:37:51.970Z,40.40
2019-03-03T18:40:25.360Z,35.33
2019-03-03T18:42:54.329Z,33.93
2019-03-03T18:45:23.671Z,29.77
2019-03-03T18:47:52.432Z,30.03
2019-03-03T18:50:23.409Z,31.87
2019-03-03T18:52:52.079Z,29.77
2019-03-03T18:55:20.708Z,31.07
2019-03-03T18:57:49.352Z,32.00
2019-03-03T19:00:23.704Z,29.43
2019-03-03T19:02:52.577Z,29.47
2019-03-03T19:05:21.409Z,30.00
2019-03-03T19:07:50.204Z,31.33
2019-03-03T19:10:21.514Z,32.97
2019-03-03T19:12:50.169Z,31.43
2019-03-03T19:15:20.356Z,30.10
2019-03-03T19:17:52.033Z,32.23
2019-03-03T19:20:21.616Z,32.87
2019-03-03T19:22:50.657Z,32.90
2019-03-03T19:25:19.668Z,30.87
2019-03-03T19:27:48.376Z,29.17
2019-03-03T19:30:19.959Z,30.37
2019-03-03T19:32:51.686Z,32.37
2019-03-03T19:35:23.226Z,31.23
2019-03-03T19:37:56.352Z,31.63
2019-03-03T19:40:24.996Z,29.03
2019-03-03T19:42:53.684Z,30.33
2019-03-03T19:45:28.740Z,29.23
2019-03-03T19:47:57.418Z,28.30
2019-03-03T19:50:26.047Z,28.67
2019-03-03T19:52:54.703Z,28.43
2019-03-03T19:55:23.443Z,34.13
2019-03-03T19:57:52.151Z,34.13
2019-03-03T20:00:35.093Z,33.03
2019-03-03T20:02:57.011Z,32.37
2019-03-03T20:05:25.702Z,34.50
2019-03-03T20:07:54.434Z,34.50
2019-03-03T20:10:23.114Z,37.00
2019-03-03T20:12:54.581Z,39.40
2019-03-03T20:15:23.198Z,34.70
2019-03-03T20:17:51.873Z,34.80
2019-03-03T20:20:21.409Z,35.37
2019-03-03T20:22:50.074Z,33.97
2019-03-03T20:25:18.669Z,33.33
2019-03-03T20:27:47.343Z,34.77
2019-03-03T20:30:23.411Z,35.90
2019-03-03T20:32:52.085Z,35.37
2019-03-03T20:35:20.711Z,37.87
2019-03-03T20:37:49.381Z,35.73
2019-03-03T20:40:22.955Z,36.33
2019-03-03T20:42:51.626Z,36.87
2019-03-03T20:45:25.272Z,38.10
2019-03-03T20:47:53.944Z,41.37
2019-03-03T20:50:22.664Z,46.27
2019-03-03T20:52:51.735Z,46.13
2019-03-03T20:55:31.234Z,48.60
2019-03-03T20:57:59.961Z,45.13
2019-03-03T21:00:29.884Z,44.37
2019-03-03T21:02:58.757Z,44.57
2019-03-03T21:05:27.781Z,44.67
2019-03-03T21:07:56.472Z,45.57
2019-03-03T21:10:26.103Z,46.60
2019-03-03T21:12:54.674Z,49.87
2019-03-03T21:15:23.360Z,55.23
2019-03-03T21:17:52.000Z,58.37
2019-03-03T21:20:24.655Z,64.23
2019-03-03T21:22:53.304Z,59.93
2019-03-03T21:25:24.295Z,60.93
2019-03-03T21:27:52.934Z,57.53
2019-03-03T21:30:26.255Z,58.40
2019-03-03T21:32:54.898Z,55.67
2019-03-03T21:35:23.977Z,57.27
2019-03-03T21:37:52.719Z,53.50
2019-03-03T21:40:22.362Z,52.17
2019-03-03T21:42:51.000Z,50.97
2019-03-03T21:45:32.097Z,46.70
2019-03-03T21:48:00.485Z,49.33
2019-03-03T21:50:30.164Z,47.53
2019-03-03T21:52:58.875Z,46.30
2019-03-03T21:55:27.469Z,45.87
2019-03-03T21:57:58.823Z,45.57
2019-03-03T22:00:43.295Z,44.93
2019-03-03T22:03:11.974Z,47.43
2019-03-03T22:05:40.656Z,46.40
2019-03-03T22:08:09.291Z,45.63
2019-03-03T22:10:37.855Z,45.00
2019-03-03T22:13:12.891Z,45.57
2019-03-03T22:15:41.520Z,46.17
2019-03-03T22:18:10.178Z,43.97
2019-03-03T22:20:38.842Z,46.70
2019-03-03T22:23:07.466Z,43.37
2019-03-03T22:25:36.168Z,42.23
2019-03-03T22:28:04.808Z,44.20
2019-03-03T22:30:33.359Z,44.83
2019-03-03T22:33:02.041Z,45.23
2019-03-03T22:35:30.604Z,44.30
2019-03-03T22:37:59.235Z,44.83
2019-03-03T22:40:27.913Z,53.73
2019-03-03T22:42:56.588Z,63.77
2019-03-03T22:45:28.539Z,61.87
2019-03-03T22:47:57.227Z,58.83
2019-03-03T22:50:25.861Z,54.43
2019-03-03T22:52:54.431Z,50.80
2019-03-03T22:55:23.107Z,49.47
2019-03-03T22:57:51.662Z,44.43
2019-03-03T23:00:34.341Z,45.37
2019-03-03T23:03:02.907Z,46.50
2019-03-03T23:05:53.890Z,41.37
2019-03-03T23:08:40.637Z,42.20
2019-03-03T23:11:20.471Z,40.80
2019-03-03T23:13:54.845Z,40.67
2019-03-03T23:16:39.281Z,40.37
2019-03-03T23:19:13.374Z,38.33
2019-03-03T23:22:08.206Z,36.80
2019-03-03T23:24:42.660Z,33.30
2019-03-03T23:27:11.219Z,35.67
2019-03-03T23:29:39.834Z,35.10
2019-03-03T23:32:08.478Z,34.70
2019-03-03T23:34:37.037Z,36.23
2019-03-03T23:37:05.723Z,36.07
2019-03-03T23:39:34.284Z,35.17
2019-03-03T23:42:02.947Z,34.17
2019-03-03T23:44:31.407Z,33.47
2019-03-03T23:46:59.978Z,33.47
2019-03-03T23:49:31.556Z,33.20
2019-03-03T23:52:00.232Z,33.77
2019-03-03T23:54:28.715Z,33.43
2019-03-03T23:56:57.207Z,34.93
2019-03-03T23:59:25.775Z,33.07
